PACV METAR and TAF weather

Enter ICAO airport designator
Station Type Date Time Source
PACV METAR 2019/10/15 08:53 UTC NOAA

PACV 150853Z 00000KT 10SM BKN200 M01/M03 A2930 RMK AO2 SLP922 T10111033 401061044 56030


Station Type Date Time Source
PACV Decoded METAR 2019/10/15 08:53 UTC NOAA

MERLE K. SMITH AIRPORT, AK, United States (PACV) 60-30N 145-29W 13M
Oct 15, 2019 - 04:53 AM EDT / 2019.10.15 0853 UTC
Wind: Calm:0
Visibility: 10 mile(s):0
Sky conditions: mostly cloudy
Temperature: 30.0 F (-1.1 C)
Dew Point: 26.1 F (-3.3 C)
Relative Humidity: 84%
Pressure (altimeter): 29.3 in. Hg (992 hPa)
Pressure tendency: 0.09 inches (3.0 hPa) lower than three hours ago
ob: PACV 150853Z 00000KT 10SM BKN200 M01/M03 A2930 RMK AO2 SLP922 T10111033 401061044 56030
cycle: 9

Station Type Date Time Source
PACV TAF 2019/10/15 06:30 UTC NOAA

TAF PACV 150527Z 1506/1606 VRB03KT P6SM FEW060 BKN200
FM151400 VRB03KT P6SM SCT060 OVC100
FM151800 06006KT P6SM VCSH FEW020 OVC050
FM152200 08006KT 6SM -RA BR BKN020

Example: see airport list